createdAt,value
2023-04-20T00:01:07.844Z,100497.59
2023-04-20T00:03:38.373Z,100491.31
2023-04-20T00:06:08.100Z,100485.28
2023-04-20T00:08:36.702Z,100492.25
2023-04-20T00:11:04.986Z,100486.94
2023-04-20T00:13:33.707Z,100485.13
2023-04-20T00:16:03.404Z,100470.00
2023-04-20T00:18:31.915Z,100471.81
2023-04-20T00:21:00.261Z,100464.84
2023-04-20T00:23:28.855Z,100470.00
2023-04-20T00:25:57.121Z,100471.03
2023-04-20T00:28:25.956Z,100475.34
2023-04-20T00:30:54.241Z,100471.88
2023-04-20T00:33:22.982Z,100483.41
2023-04-20T00:35:51.216Z,100487.88
2023-04-20T00:38:19.772Z,100491.41
2023-04-20T00:40:53.318Z,100507.41
2023-04-20T00:43:22.690Z,100502.13
2023-04-20T00:45:52.904Z,100510.91
2023-04-20T00:48:22.362Z,100516.41
2023-04-20T00:50:51.206Z,100526.91
2023-04-20T00:53:19.905Z,100528.72
2023-04-20T00:55:51.398Z,100534.03
2023-04-20T00:58:20.293Z,100519.84
2023-04-20T01:00:48.515Z,100505.59
2023-04-20T01:03:20.017Z,100497.75
2023-04-20T01:05:50.130Z,100500.34
2023-04-20T01:08:18.689Z,100488.03
2023-04-20T01:10:46.970Z,100501.19
2023-04-20T01:13:15.540Z,100487.09
2023-04-20T01:15:43.812Z,100481.75
2023-04-20T01:18:12.460Z,100468.34
2023-04-20T01:20:40.921Z,100453.47
2023-04-20T01:23:09.762Z,100458.63
2023-04-20T01:25:37.958Z,100443.66
2023-04-20T01:28:06.641Z,100440.06
2023-04-20T01:30:35.261Z,100435.75
2023-04-20T01:33:05.784Z,100440.94
2023-04-20T01:35:34.049Z,100433.00
2023-04-20T01:38:04.040Z,100438.19
2023-04-20T01:40:32.568Z,100431.13
2023-04-20T01:43:01.385Z,100424.22
2023-04-20T01:45:29.633Z,100442.66
2023-04-20T01:47:59.355Z,100433.78
2023-04-20T01:50:27.608Z,100436.47
2023-04-20T01:52:56.484Z,100441.78
2023-04-20T01:55:24.842Z,100441.94
2023-04-20T01:57:54.366Z,100447.97
2023-04-20T02:00:22.930Z,100445.31
2023-04-20T02:02:51.685Z,100452.44
2023-04-20T02:05:20.077Z,100446.25
2023-04-20T02:07:48.644Z,100445.56
2023-04-20T02:10:16.865Z,100450.88
2023-04-20T02:12:46.989Z,100454.34
2023-04-20T02:15:15.456Z,100451.81
2023-04-20T02:17:45.547Z,100452.59
2023-04-20T02:20:14.763Z,100447.28
2023-04-20T02:22:43.377Z,100448.13
2023-04-20T02:25:11.734Z,100441.94
2023-04-20T02:27:40.406Z,100433.16
2023-04-20T02:30:09.129Z,100441.94
2023-04-20T02:32:37.763Z,100439.28
2023-04-20T02:35:06.581Z,100443.66
2023-04-20T02:37:35.194Z,100451.66
2023-04-20T02:40:05.317Z,100449.16
2023-04-20T02:42:33.922Z,100444.69
2023-04-20T02:45:04.698Z,100442.09
2023-04-20T02:47:33.851Z,100441.09
2023-04-20T02:50:02.147Z,100435.91
2023-04-20T02:52:34.403Z,100435.91
2023-04-20T02:55:04.192Z,100429.56
2023-04-20T02:57:33.250Z,100433.16
2023-04-20T03:00:02.680Z,100428.78
2023-04-20T03:02:44.684Z,100424.41
2023-04-20T03:05:13.632Z,100427.84
2023-04-20T03:07:45.417Z,100428.78
2023-04-20T03:10:14.415Z,100419.22
2023-04-20T03:12:53.374Z,100430.59
2023-04-20T03:15:24.584Z,100431.59
2023-04-20T03:18:32.093Z,100422.59
2023-04-20T03:21:00.911Z,100416.41
2023-04-20T03:23:32.318Z,100424.41
2023-04-20T03:26:02.556Z,100416.47
2023-04-20T03:28:44.580Z,100418.28
2023-04-20T03:31:16.706Z,100418.13
2023-04-20T03:33:45.768Z,100427.06
2023-04-20T03:36:14.514Z,100419.06
2023-04-20T03:38:44.529Z,100420.00
2023-04-20T03:41:13.298Z,100414.88
2023-04-20T03:43:42.026Z,100420.00
2023-04-20T03:46:11.366Z,100408.50
2023-04-20T03:48:40.015Z,100413.75
2023-04-20T03:51:08.289Z,100413.81
2023-04-20T03:53:38.944Z,100414.75
2023-04-20T03:56:10.267Z,100411.34
2023-04-20T03:58:39.148Z,100420.09
2023-04-20T04:01:13.618Z,100418.28
2023-04-20T04:03:46.835Z,100419.22
2023-04-20T04:06:15.863Z,100417.34
2023-04-20T04:08:44.547Z,100419.22
2023-04-20T04:11:12.748Z,100408.75
2023-04-20T04:13:41.280Z,100412.94
2023-04-20T04:16:10.668Z,100405.91
2023-04-20T04:18:45.772Z,100421.88
2023-04-20T04:21:14.102Z,100418.47
2023-04-20T04:23:47.671Z,100428.19
2023-04-20T04:26:32.231Z,100434.47
2023-04-20T04:29:04.705Z,100428.34
2023-04-20T04:31:35.235Z,100429.88
2023-04-20T04:34:15.084Z,100433.59
2023-04-20T04:36:50.771Z,100444.25
2023-04-20T04:39:24.884Z,100435.41
2023-04-20T04:42:05.473Z,100443.41
2023-04-20T04:44:41.571Z,100430.94
2023-04-20T04:47:14.563Z,100432.72
2023-04-20T04:49:43.279Z,100432.72
2023-04-20T04:52:11.839Z,100428.34
2023-04-20T04:54:40.569Z,100419.41
2023-04-20T04:57:08.770Z,100414.09
2023-04-20T04:59:37.640Z,100411.41
2023-04-20T05:02:06.017Z,100430.06
2023-04-20T05:04:34.728Z,100445.19
2023-04-20T05:07:03.192Z,100436.34
2023-04-20T05:09:34.048Z,100440.72
2023-04-20T05:12:03.323Z,100428.34
2023-04-20T05:14:32.329Z,100427.41
2023-04-20T05:17:01.250Z,100431.88
2023-04-20T05:19:29.819Z,100430.06
2023-04-20T05:21:58.058Z,100440.81
2023-04-20T05:24:26.985Z,100442.59
2023-04-20T05:26:55.196Z,100446.06
2023-04-20T05:29:24.402Z,100448.63
2023-04-20T05:31:52.717Z,100446.06
2023-04-20T05:34:21.526Z,100446.91
2023-04-20T05:36:49.791Z,100446.84
2023-04-20T05:39:19.134Z,100446.84
2023-04-20T05:41:48.122Z,100447.78
2023-04-20T05:44:16.680Z,100450.38
2023-04-20T05:46:44.986Z,100445.97
2023-04-20T05:49:13.608Z,100454.84
2023-04-20T05:51:41.856Z,100456.53
2023-04-20T05:54:10.611Z,100458.44
2023-04-20T05:56:38.951Z,100461.84
2023-04-20T05:59:07.660Z,100467.19
2023-04-20T06:01:36.008Z,100461.03
2023-04-20T06:04:04.721Z,100461.84
2023-04-20T06:06:33.084Z,100470.81
2023-04-20T06:09:01.702Z,100456.72
2023-04-20T06:11:29.974Z,100458.59
2023-04-20T06:13:58.567Z,100454.84
2023-04-20T06:16:27.015Z,100450.44
2023-04-20T06:18:55.657Z,100456.53
2023-04-20T06:21:25.075Z,100459.44
2023-04-20T06:23:53.674Z,100458.59
2023-04-20T06:26:22.315Z,100462.72
2023-04-20T06:28:53.225Z,100465.50
2023-04-20T06:31:22.269Z,100469.09
2023-04-20T06:33:50.925Z,100469.25
2023-04-20T06:36:19.076Z,100470.19
2023-04-20T06:38:47.759Z,100468.38
2023-04-20T06:41:16.687Z,100464.06
2023-04-20T06:43:46.429Z,100472.84
2023-04-20T06:46:14.776Z,100481.78
2023-04-20T06:48:43.389Z,100481.88
2023-04-20T06:51:13.554Z,100485.38
2023-04-20T06:53:42.369Z,100480.06
2023-04-20T06:56:11.635Z,100473.88
2023-04-20T06:58:40.259Z,100471.28
2023-04-20T07:01:08.668Z,100480.06
2023-04-20T07:03:38.707Z,100490.72
2023-04-20T07:06:07.520Z,100487.25
2023-04-20T07:08:36.202Z,100485.38
2023-04-20T07:11:04.463Z,100487.13
2023-04-20T07:13:33.869Z,100482.56
2023-04-20T07:16:03.121Z,100485.22
2023-04-20T07:18:33.919Z,100487.91
2023-04-20T07:21:03.530Z,100492.28
2023-04-20T07:23:32.202Z,100490.72
2023-04-20T07:26:00.660Z,100491.34
2023-04-20T07:28:29.462Z,100478.97
2023-04-20T07:30:57.753Z,100481.63
2023-04-20T07:33:26.605Z,100484.22
2023-04-20T07:35:55.104Z,100483.44
2023-04-20T07:38:23.759Z,100491.44
2023-04-20T07:40:52.010Z,100491.50
2023-04-20T07:43:20.781Z,100495.09
2023-04-20T07:45:49.075Z,100499.50
2023-04-20T07:48:17.635Z,100504.81
2023-04-20T07:50:46.602Z,100504.81
2023-04-20T07:53:15.116Z,100502.16
2023-04-20T07:55:43.342Z,100505.69
2023-04-20T07:58:12.756Z,100504.81
2023-04-20T08:00:41.055Z,100503.09
2023-04-20T08:03:09.978Z,100499.50
2023-04-20T08:05:39.471Z,100504.81
2023-04-20T08:08:08.165Z,100504.75
2023-04-20T08:10:36.955Z,100501.06
2023-04-20T08:13:05.590Z,100502.69
2023-04-20T08:15:33.787Z,100505.34
2023-04-20T08:18:02.488Z,100508.13
2023-04-20T08:20:30.695Z,100494.69
2023-04-20T08:22:59.507Z,100490.41
2023-04-20T08:25:27.820Z,100501.66
2023-04-20T08:27:57.084Z,100502.44
2023-04-20T08:30:25.366Z,100501.59
2023-04-20T08:32:53.976Z,100501.59
2023-04-20T08:35:22.257Z,100502.44
2023-04-20T08:37:50.872Z,100498.06
2023-04-20T08:40:22.065Z,100497.19
2023-04-20T08:42:50.636Z,100502.44
2023-04-20T08:45:18.852Z,100497.19
2023-04-20T08:47:48.069Z,100501.06
2023-04-20T08:50:16.786Z,100500.13
2023-04-20T08:52:45.793Z,100493.81
2023-04-20T08:55:21.545Z,100501.06
2023-04-20T08:57:50.435Z,100492.28
2023-04-20T09:00:18.880Z,100483.34
2023-04-20T09:02:56.959Z,100486.09
2023-04-20T09:05:30.190Z,100487.03
2023-04-20T09:08:01.385Z,100484.38
2023-04-20T09:10:40.236Z,100496.03
2023-04-20T09:13:10.771Z,100491.56
2023-04-20T09:15:38.930Z,100487.13
2023-04-20T09:18:14.933Z,100484.44
2023-04-20T09:20:43.170Z,100482.88
2023-04-20T09:23:17.256Z,100484.53
2023-04-20T09:25:47.709Z,100473.88
2023-04-20T09:28:18.025Z,100483.66
2023-04-20T09:30:47.867Z,100479.91
2023-04-20T09:33:16.613Z,100481.56
2023-04-20T09:35:45.939Z,100481.47
2023-04-20T09:38:17.782Z,100483.00
2023-04-20T09:40:46.164Z,100486.53
2023-04-20T09:43:19.276Z,100488.34
2023-04-20T09:45:47.900Z,100491.94
2023-04-20T09:48:19.715Z,100499.16
2023-04-20T09:50:50.973Z,100504.47
2023-04-20T09:53:20.886Z,100493.16
2023-04-20T09:55:51.641Z,100496.59
2023-04-20T09:58:21.766Z,100492.28
2023-04-20T10:00:51.202Z,100501.22
2023-04-20T10:03:20.661Z,100501.22
2023-04-20T10:05:50.190Z,100506.69
2023-04-20T10:08:20.771Z,100512.19
2023-04-20T10:10:50.346Z,100509.44
2023-04-20T10:13:23.517Z,100510.44
2023-04-20T10:15:52.066Z,100517.50
2023-04-20T10:18:25.048Z,100515.78
2023-04-20T10:21:07.067Z,100512.34
2023-04-20T10:23:35.692Z,100516.72
2023-04-20T10:26:04.095Z,100523.00
2023-04-20T10:28:40.530Z,100517.59
2023-04-20T10:31:13.323Z,100524.88
2023-04-20T10:33:55.742Z,100514.38
2023-04-20T10:36:33.046Z,100522.31
2023-04-20T10:39:05.248Z,100523.13
2023-04-20T10:41:33.522Z,100524.88
2023-04-20T10:44:09.224Z,100523.13
2023-04-20T10:46:37.777Z,100522.38
2023-04-20T10:49:06.841Z,100531.13
2023-04-20T10:51:35.084Z,100525.13
2023-04-20T10:54:08.449Z,100536.47
2023-04-20T10:56:42.227Z,100540.09
2023-04-20T10:59:13.094Z,100541.78
2023-04-20T11:01:41.829Z,100534.84
2023-04-20T11:04:11.819Z,100534.66
2023-04-20T11:06:42.158Z,100524.09
2023-04-20T11:09:27.050Z,100526.78
2023-04-20T11:12:14.973Z,100518.00
2023-04-20T11:15:03.099Z,100510.94
2023-04-20T11:17:35.469Z,100503.56
2023-04-20T11:20:15.380Z,100495.56
2023-04-20T11:22:44.427Z,100484.16
2023-04-20T11:25:13.916Z,100487.84
2023-04-20T11:27:43.291Z,100497.38
2023-04-20T11:30:11.715Z,100489.47
2023-04-20T11:32:40.566Z,100484.69
2023-04-20T11:35:11.325Z,100490.44
2023-04-20T11:37:51.729Z,100484.13
2023-04-20T11:40:20.181Z,100484.47
2023-04-20T11:42:48.736Z,100488.50
2023-04-20T11:45:18.093Z,100477.63
2023-04-20T11:47:47.473Z,100481.00
2023-04-20T11:50:16.039Z,100486.34
2023-04-20T11:52:45.024Z,100502.94
2023-04-20T11:55:13.588Z,100494.97
2023-04-20T11:57:42.692Z,100487.91
2023-04-20T12:00:11.324Z,100493.09
2023-04-20T12:02:42.943Z,100491.19
2023-04-20T12:05:12.368Z,100496.50
2023-04-20T12:07:41.121Z,100494.81
2023-04-20T12:10:09.722Z,100497.28
2023-04-20T12:12:38.727Z,100499.09
2023-04-20T12:15:07.790Z,100491.97
2023-04-20T12:17:36.460Z,100491.19
2023-04-20T12:20:09.237Z,100492.75
2023-04-20T12:22:38.244Z,100484.84
2023-04-20T12:25:07.462Z,100483.81
2023-04-20T12:27:36.226Z,100487.41
2023-04-20T12:30:05.121Z,100482.94
2023-04-20T12:32:33.756Z,100477.63
2023-04-20T12:35:02.083Z,100481.94
2023-04-20T12:37:31.091Z,100478.34
2023-04-20T12:39:59.220Z,100476.59
2023-04-20T12:42:27.813Z,100475.66
2023-04-20T12:44:56.448Z,100468.63
2023-04-20T12:47:25.368Z,100470.25
2023-04-20T12:49:54.830Z,100464.06
2023-04-20T12:52:23.492Z,100471.91
2023-04-20T12:54:51.688Z,100463.91
2023-04-20T12:57:20.234Z,100457.72
2023-04-20T12:59:51.486Z,100461.19
2023-04-20T13:02:20.322Z,100453.84
2023-04-20T13:04:48.648Z,100454.84
2023-04-20T13:07:17.250Z,100445.88
2023-04-20T13:09:45.500Z,100436.94
2023-04-20T13:12:14.267Z,100435.13
2023-04-20T13:14:42.930Z,100440.47
2023-04-20T13:17:11.433Z,100441.25
2023-04-20T13:19:39.709Z,100435.06
2023-04-20T13:22:08.329Z,100438.66
2023-04-20T13:24:36.619Z,100438.50
2023-04-20T13:27:05.410Z,100445.88
2023-04-20T13:29:33.673Z,100439.00
2023-04-20T13:32:02.296Z,100441.81
2023-04-20T13:34:30.642Z,100437.13
2023-04-20T13:36:59.290Z,100440.72
2023-04-20T13:39:28.096Z,100446.06
2023-04-20T13:41:57.075Z,100435.41
2023-04-20T13:44:25.460Z,100438.84
2023-04-20T13:46:54.067Z,100437.88
2023-04-20T13:49:23.183Z,100438.66
2023-04-20T13:51:51.711Z,100431.59
2023-04-20T13:54:20.135Z,100436.94
2023-04-20T13:56:48.810Z,100428.34
2023-04-20T13:59:17.182Z,100430.94
2023-04-20T14:01:45.738Z,100436.94
2023-04-20T14:04:17.082Z,100443.13
2023-04-20T14:06:46.317Z,100440.38
2023-04-20T14:09:14.662Z,100440.53
2023-04-20T14:11:43.867Z,100428.34
2023-04-20T14:14:12.277Z,100431.88
2023-04-20T14:16:47.869Z,100441.66
2023-04-20T14:19:16.190Z,100435.41
2023-04-20T14:21:46.964Z,100436.25
2023-04-20T14:24:15.339Z,100433.69
2023-04-20T14:26:44.046Z,100432.88
2023-04-20T14:29:12.445Z,100439.00
2023-04-20T14:31:41.074Z,100433.84
2023-04-20T14:34:09.798Z,100445.19
2023-04-20T14:36:38.367Z,100444.50
2023-04-20T14:39:06.579Z,100441.81
2023-04-20T14:41:35.741Z,100446.22
2023-04-20T14:44:05.327Z,100452.47
2023-04-20T14:46:33.958Z,100462.19
2023-04-20T14:49:02.295Z,100458.59
2023-04-20T14:51:31.348Z,100443.53
2023-04-20T14:53:59.722Z,100458.44
2023-04-20T14:56:28.363Z,100453.78
2023-04-20T14:58:57.705Z,100454.84
2023-04-20T15:01:28.136Z,100453.09
2023-04-20T15:03:56.725Z,100445.13
2023-04-20T15:06:25.783Z,100446.13
2023-04-20T15:08:57.497Z,100444.34
2023-04-20T15:11:26.192Z,100439.16
2023-04-20T15:13:54.541Z,100455.00
2023-04-20T15:16:23.102Z,100453.41
2023-04-20T15:18:53.311Z,100445.34
2023-04-20T15:21:23.552Z,100444.50
2023-04-20T15:23:51.745Z,100438.28
2023-04-20T15:26:20.366Z,100440.09
2023-04-20T15:28:50.352Z,100444.50
2023-04-20T15:31:19.425Z,100445.50
2023-04-20T15:33:51.010Z,100446.38
2023-04-20T15:36:20.665Z,100442.91
2023-04-20T15:38:48.941Z,100446.53
2023-04-20T15:41:17.672Z,100450.13
2023-04-20T15:43:46.232Z,100439.47
2023-04-20T15:46:14.970Z,100443.22
2023-04-20T15:48:45.079Z,100441.53
2023-04-20T15:51:13.774Z,100435.25
2023-04-20T15:53:45.093Z,100446.00
2023-04-20T15:56:13.674Z,100454.84
2023-04-20T15:58:42.084Z,100457.53
2023-04-20T16:01:10.773Z,100444.34
2023-04-20T16:03:39.750Z,100442.41
2023-04-20T16:06:08.583Z,100458.38
2023-04-20T16:08:36.859Z,100455.78
2023-04-20T16:11:24.205Z,100458.47
2023-04-20T16:13:52.523Z,100463.78
2023-04-20T16:16:21.136Z,100463.84
2023-04-20T16:18:49.716Z,100457.66
2023-04-20T16:21:19.071Z,100458.63
2023-04-20T16:23:47.270Z,100461.28
2023-04-20T16:26:17.109Z,100447.88
2023-04-20T16:28:45.449Z,100449.75
2023-04-20T16:31:14.218Z,100454.22
2023-04-20T16:33:43.027Z,100454.28
2023-04-20T16:36:12.625Z,100456.09
2023-04-20T16:38:40.869Z,100457.97
2023-04-20T16:41:09.745Z,100459.84
2023-04-20T16:43:38.113Z,100463.38
2023-04-20T16:46:10.377Z,100451.94
2023-04-20T16:48:38.668Z,100461.72
2023-04-20T16:51:09.467Z,100456.47
2023-04-20T16:53:37.756Z,100468.00
2023-04-20T16:56:06.723Z,100467.06
2023-04-20T16:58:35.125Z,100461.72
2023-04-20T17:01:04.116Z,100461.72
2023-04-20T17:03:32.658Z,100465.34
2023-04-20T17:06:07.592Z,100460.00
2023-04-20T17:08:39.810Z,100469.56
2023-04-20T17:11:08.486Z,100468.94
2023-04-20T17:13:36.884Z,100475.97
2023-04-20T17:16:05.578Z,100476.91
2023-04-20T17:18:35.265Z,100485.03
2023-04-20T17:21:04.027Z,100494.63
2023-04-20T17:23:36.137Z,100500.03
2023-04-20T17:26:04.810Z,100515.94
2023-04-20T17:28:33.207Z,100526.84
2023-04-20T17:31:01.928Z,100534.56
2023-04-20T17:33:30.893Z,100539.03
2023-04-20T17:36:00.770Z,100552.28
2023-04-20T17:38:29.034Z,100562.94
2023-04-20T17:40:57.665Z,100563.88
2023-04-20T17:43:25.982Z,100566.53
2023-04-20T17:45:54.712Z,100572.78
2023-04-20T17:48:23.057Z,100567.56
2023-04-20T17:50:52.063Z,100579.91
2023-04-20T17:53:20.457Z,100585.41
2023-04-20T17:55:49.043Z,100581.88
2023-04-20T17:58:17.992Z,100590.81
2023-04-20T18:00:47.931Z,100593.34
2023-04-20T18:03:16.723Z,100590.66
2023-04-20T18:05:46.025Z,100596.00
2023-04-20T18:08:15.834Z,100599.53
2023-04-20T18:10:44.810Z,100603.03
2023-04-20T18:13:13.134Z,100604.00
2023-04-20T18:15:41.807Z,100605.69
2023-04-20T18:18:10.269Z,100600.34
2023-04-20T18:20:39.106Z,100584.38
2023-04-20T18:23:07.701Z,100584.38
2023-04-20T18:25:36.861Z,100579.06
2023-04-20T18:28:05.198Z,100577.34
2023-04-20T18:30:34.127Z,100578.97
2023-04-20T18:33:02.584Z,100577.34
2023-04-20T18:35:31.456Z,100579.16
2023-04-20T18:37:59.896Z,100584.56
2023-04-20T18:40:28.556Z,100592.47
2023-04-20T18:42:56.888Z,100591.59
2023-04-20T18:45:25.835Z,100593.34
2023-04-20T18:48:12.897Z,100598.72
2023-04-20T18:50:41.739Z,100595.34
2023-04-20T18:53:09.996Z,100601.47
2023-04-20T18:55:38.684Z,100600.53
2023-04-20T18:58:07.105Z,100597.94
2023-04-20T19:00:35.872Z,100599.66
2023-04-20T19:03:05.938Z,100596.28
2023-04-20T19:05:34.944Z,100591.81
2023-04-20T19:08:03.399Z,100597.06
2023-04-20T19:10:32.340Z,100600.69
2023-04-20T19:13:00.773Z,100596.16
2023-04-20T19:15:29.402Z,100597.94
2023-04-20T19:17:57.862Z,100598.81
2023-04-20T19:20:26.888Z,100596.22
2023-04-20T19:22:55.448Z,100594.56
2023-04-20T19:25:24.168Z,100595.34
2023-04-20T19:27:52.467Z,100595.34
2023-04-20T19:30:21.445Z,100593.47
2023-04-20T19:32:49.853Z,100596.28
2023-04-20T19:35:18.536Z,100602.53
2023-04-20T19:37:47.244Z,100607.88
2023-04-20T19:40:16.475Z,100604.13
2023-04-20T19:42:44.841Z,100611.19
2023-04-20T19:45:13.325Z,100606.00
2023-04-20T19:47:41.809Z,100602.53
2023-04-20T19:50:11.678Z,100602.69
2023-04-20T19:52:40.015Z,100600.81
2023-04-20T19:55:09.097Z,100600.94
2023-04-20T19:57:37.185Z,100607.16
2023-04-20T20:00:07.761Z,100619.63
2023-04-20T20:02:41.678Z,100601.88
2023-04-20T20:05:10.677Z,100604.53
2023-04-20T20:07:38.900Z,100610.69
2023-04-20T20:10:08.098Z,100606.25
2023-04-20T20:12:36.276Z,100610.78
2023-04-20T20:15:05.056Z,100622.44
2023-04-20T20:17:33.703Z,100624.00
2023-04-20T20:20:02.482Z,100631.03
2023-04-20T20:22:30.723Z,100632.88
2023-04-20T20:25:01.388Z,100615.19
2023-04-20T20:27:29.560Z,100620.50
2023-04-20T20:29:58.079Z,100620.50
2023-04-20T20:32:26.282Z,100610.59
2023-04-20T20:34:54.795Z,100607.09
2023-04-20T20:37:23.039Z,100614.22
2023-04-20T20:39:53.384Z,100615.00
2023-04-20T20:42:21.715Z,100618.44
2023-04-20T20:44:51.255Z,100621.13
2023-04-20T20:47:19.401Z,100614.78
2023-04-20T20:49:47.827Z,100625.44
2023-04-20T20:52:16.128Z,100627.31
2023-04-20T20:54:44.706Z,100618.53
2023-04-20T20:57:12.840Z,100619.31
2023-04-20T20:59:42.254Z,100614.94
2023-04-20T21:02:10.715Z,100624.56
2023-04-20T21:04:39.253Z,100620.09
2023-04-20T21:07:07.449Z,100609.47
2023-04-20T21:09:36.026Z,100606.00
2023-04-20T21:12:04.447Z,100614.78
2023-04-20T21:14:33.148Z,100608.44
2023-04-20T21:17:01.417Z,100595.28
2023-04-20T21:19:30.093Z,100604.28
2023-04-20T21:21:58.409Z,100586.66
2023-04-20T21:24:27.268Z,100604.41
2023-04-20T21:26:55.458Z,100603.66
2023-04-20T21:29:24.208Z,100601.16
2023-04-20T21:31:52.414Z,100606.41
2023-04-20T21:34:20.969Z,100606.41
2023-04-20T21:36:49.097Z,100604.78
2023-04-20T21:39:17.820Z,100617.22
2023-04-20T21:41:46.401Z,100597.78
2023-04-20T21:44:14.899Z,100611.03
2023-04-20T21:46:43.076Z,100597.00
2023-04-20T21:49:11.691Z,100603.13
2023-04-20T21:51:39.799Z,100602.94
2023-04-20T21:54:08.272Z,100600.47
2023-04-20T21:56:36.397Z,100609.38
2023-04-20T21:59:04.874Z,100604.84
2023-04-20T22:01:33.254Z,100601.38
2023-04-20T22:04:02.394Z,100613.84
2023-04-20T22:06:32.496Z,100611.25
2023-04-20T22:09:01.169Z,100607.72
2023-04-20T22:11:29.836Z,100612.19
2023-04-20T22:13:58.414Z,100616.63
2023-04-20T22:16:28.889Z,100626.44
2023-04-20T22:18:58.713Z,100622.97
2023-04-20T22:21:27.149Z,100624.69
2023-04-20T22:23:55.727Z,100626.56
2023-04-20T22:26:24.065Z,100629.22
2023-04-20T22:28:52.755Z,100623.91
2023-04-20T22:31:21.018Z,100631.75
2023-04-20T22:33:49.779Z,100628.16
2023-04-20T22:36:18.739Z,100630.31
2023-04-20T22:38:47.257Z,100623.84
2023-04-20T22:41:17.326Z,100622.38
2023-04-20T22:43:46.298Z,100624.97
2023-04-20T22:46:14.527Z,100631.09
2023-04-20T22:48:43.205Z,100633.69
2023-04-20T22:51:11.376Z,100619.50
2023-04-20T22:53:39.826Z,100627.56
2023-04-20T22:56:08.866Z,100624.03
2023-04-20T22:58:37.384Z,100627.50
2023-04-20T23:01:05.658Z,100617.94
2023-04-20T23:03:34.429Z,100624.91
2023-04-20T23:06:03.070Z,100629.38
2023-04-20T23:08:33.961Z,100624.09
2023-04-20T23:11:02.292Z,100626.69
2023-04-20T23:13:30.958Z,100622.31
2023-04-20T23:15:59.156Z,100611.66
2023-04-20T23:18:27.657Z,100608.00
2023-04-20T23:20:57.293Z,100611.66
2023-04-20T23:23:26.103Z,100605.56
2023-04-20T23:25:54.449Z,100603.75
2023-04-20T23:28:23.156Z,100617.06
2023-04-20T23:30:51.488Z,100611.75
2023-04-20T23:33:20.024Z,100613.53
2023-04-20T23:35:48.328Z,100607.53
2023-04-20T23:38:18.515Z,100603.94
2023-04-20T23:40:46.812Z,100596.94
2023-04-20T23:43:15.554Z,100600.47
2023-04-20T23:45:43.775Z,100605.72
2023-04-20T23:48:12.544Z,100602.13
2023-04-20T23:50:40.787Z,100596.81
2023-04-20T23:53:10.711Z,100594.91
2023-04-20T23:55:38.946Z,100592.41
2023-04-20T23:58:07.616Z,100595.94
